createdAt,value
2018-01-22T00:00:47.670Z,25.5
2018-01-22T00:01:47.763Z,25.5
2018-01-22T00:02:45.656Z,25.5
2018-01-22T00:03:47.839Z,25.5
2018-01-22T00:04:45.764Z,25.5
2018-01-22T00:05:45.805Z,25.5
2018-01-22T00:06:47.756Z,25.5
2018-01-22T00:07:46.112Z,25.5
2018-01-22T00:08:46.137Z,25.5
2018-01-22T00:09:45.969Z,25.5
2018-01-22T00:10:47.927Z,25.5
2018-01-22T00:11:46.022Z,25.5
2018-01-22T00:12:46.328Z,25.5
2018-01-22T00:13:46.413Z,25.5
2018-01-22T00:14:48.379Z,25.5
2018-01-22T00:15:46.230Z,25.5
2018-01-22T00:16:46.312Z,25.5
2018-01-22T00:17:46.537Z,25.5
2018-01-22T00:18:48.339Z,25.5
2018-01-22T00:19:46.487Z,25.5
2018-01-22T00:20:48.344Z,25.5
2018-01-22T00:21:46.620Z,25.5
2018-01-22T00:22:46.467Z,25.5
2018-01-22T00:23:48.594Z,25.5
2018-01-22T00:24:48.473Z,25.5
2018-01-22T00:25:46.858Z,25.5
2018-01-22T00:26:48.862Z,25.5
2018-01-22T00:27:46.973Z,25.5
2018-01-22T00:28:46.970Z,25.5
2018-01-22T00:29:48.797Z,25.5
2018-01-22T00:30:49.015Z,25.5
2018-01-22T00:31:47.164Z,25.5
2018-01-22T00:32:47.028Z,25.5
2018-01-22T00:33:47.028Z,25.5
2018-01-22T00:34:47.294Z,25.5
2018-01-22T00:35:49.222Z,25.5
2018-01-22T00:36:49.254Z,25.5
2018-01-22T00:37:49.317Z,25.5
2018-01-22T00:38:47.419Z,25.5
2018-01-22T00:39:49.439Z,25.5
2018-01-22T00:40:47.406Z,25.5
2018-01-22T00:41:47.382Z,25.5
2018-01-22T00:42:47.691Z,25.5
2018-01-22T00:43:49.684Z,25.5
2018-01-22T00:44:47.539Z,25.5
2018-01-22T00:45:49.769Z,25.5
2018-01-22T00:46:47.624Z,25.5
2018-01-22T00:47:47.901Z,25.5
2018-01-22T00:48:49.593Z,25.5
2018-01-22T00:49:49.866Z,25.5
2018-01-22T00:50:48.020Z,25.4
2018-01-22T00:51:49.971Z,25.4
2018-01-22T00:52:48.034Z,25.5
2018-01-22T00:53:49.788Z,25.5
2018-01-22T00:54:47.930Z,25.5
2018-01-22T00:55:49.819Z,25.5
2018-01-22T00:56:47.884Z,25.5
2018-01-22T00:57:50.062Z,25.5
2018-01-22T00:58:47.981Z,25.5
2018-01-22T00:59:49.947Z,25.5
2018-01-22T01:00:48.107Z,25.5
2018-01-22T01:01:50.271Z,25.5
2018-01-22T01:02:50.083Z,25.5
2018-01-22T01:03:50.315Z,25.5
2018-01-22T01:04:48.208Z,25.5
2018-01-22T01:05:48.481Z,25.5
2018-01-22T01:06:48.600Z,25.5
2018-01-22T01:07:50.502Z,25.5
2018-01-22T01:08:48.396Z,25.5
2018-01-22T01:09:48.682Z,25.5
2018-01-22T01:10:48.542Z,25.5
2018-01-22T01:11:48.870Z,25.5
2018-01-22T01:12:48.662Z,25.5
2018-01-22T01:13:50.593Z,25.5
2018-01-22T01:14:48.972Z,25.5
2018-01-22T01:15:48.878Z,25.5
2018-01-22T01:16:51.103Z,25.5
2018-01-22T01:17:49.033Z,25.5
2018-01-22T01:18:51.206Z,25.5
2018-01-22T01:19:51.238Z,25.5
2018-01-22T01:20:51.100Z,25.5
2018-01-22T01:21:49.248Z,25.5
2018-01-22T01:22:49.281Z,25.5
2018-01-22T01:23:49.518Z,25.5
2018-01-22T01:24:51.491Z,25.5
2018-01-22T01:25:51.513Z,25.5
2018-01-22T01:26:51.359Z,25.5
2018-01-22T01:27:49.519Z,25.5
2018-01-22T01:28:51.485Z,25.5
2018-01-22T01:29:49.655Z,25.5
2018-01-22T01:30:49.909Z,25.5
2018-01-22T01:31:49.702Z,25.5
2018-01-22T01:32:51.632Z,25.5
2018-01-22T01:33:49.740Z,25.5
2018-01-22T01:34:49.764Z,25.5
2018-01-22T01:35:51.942Z,25.5
2018-01-22T01:36:50.105Z,25.5
2018-01-22T01:37:52.111Z,25.5
2018-01-22T01:38:50.058Z,25.5
2018-01-22T01:39:50.290Z,25.5
2018-01-22T01:40:50.132Z,25.5
2018-01-22T01:41:50.199Z,25.5
2018-01-22T01:42:52.122Z,25.5
2018-01-22T01:43:50.236Z,25.5
2018-01-22T01:44:52.190Z,25.5
2018-01-22T01:45:52.393Z,25.5
2018-01-22T01:46:52.255Z,25.5
2018-01-22T01:47:50.445Z,25.5
2018-01-22T01:48:50.660Z,25.5
2018-01-22T01:49:50.570Z,25.5
2018-01-22T01:50:52.698Z,25.5
2018-01-22T01:51:50.852Z,25.5
2018-01-22T01:52:50.894Z,25.5
2018-01-22T01:53:50.703Z,25.5
2018-01-22T01:54:50.925Z,25.5
2018-01-22T01:55:50.788Z,25.5
2018-01-22T01:56:52.943Z,25.5
2018-01-22T01:57:50.856Z,25.5
2018-01-22T01:58:50.813Z,25.5
2018-01-22T01:59:50.945Z,25.5
2018-01-22T02:00:52.852Z,25.5
2018-01-22T02:01:51.014Z,25.5
2018-01-22T02:02:53.006Z,25.5
2018-01-22T02:03:51.170Z,25.5
2018-01-22T02:04:51.424Z,25.5
2018-01-22T02:05:51.491Z,25.5
2018-01-22T02:06:51.601Z,25.5
2018-01-22T02:07:51.444Z,25.5
2018-01-22T02:08:51.757Z,25.5
2018-01-22T02:09:51.867Z,25.5
2018-01-22T02:10:51.641Z,25.5
2018-01-22T02:11:51.685Z,25.5
2018-01-22T02:12:51.959Z,25.5
2018-01-22T02:13:52.031Z,25.5
2018-01-22T02:14:53.814Z,25.5
2018-01-22T02:15:53.901Z,25.5
2018-01-22T02:16:53.919Z,25.5
2018-01-22T02:17:52.019Z,25.5
2018-01-22T02:18:52.225Z,25.5
2018-01-22T02:19:52.021Z,25.5
2018-01-22T02:20:52.096Z,25.5
2018-01-22T02:21:54.238Z,25.5
2018-01-22T02:22:52.324Z,25.5
2018-01-22T02:23:52.124Z,25.5
2018-01-22T02:24:52.205Z,25.5
2018-01-22T02:25:52.438Z,25.5
2018-01-22T02:26:52.484Z,25.5
2018-01-22T02:27:52.306Z,25.5
2018-01-22T02:28:52.508Z,25.5
2018-01-22T02:29:52.600Z,25.5
2018-01-22T02:30:52.596Z,25.5
2018-01-22T02:31:52.417Z,25.4
2018-01-22T02:32:52.492Z,25.5
2018-01-22T02:33:52.553Z,25.5
2018-01-22T02:34:54.504Z,25.5
2018-01-22T02:35:52.886Z,25.5
2018-01-22T02:36:54.852Z,25.5
2018-01-22T02:37:52.764Z,25.5
2018-01-22T02:38:54.966Z,25.5
2018-01-22T02:39:54.741Z,25.5
2018-01-22T02:40:55.077Z,25.5
2018-01-22T02:41:55.170Z,25.5
2018-01-22T02:42:54.942Z,25.5
2018-01-22T02:43:53.123Z,25.5
2018-01-22T02:44:55.109Z,25.5
2018-01-22T02:45:53.269Z,25.5
2018-01-22T02:46:53.544Z,25.5
2018-01-22T02:47:53.400Z,25.5
2018-01-22T02:48:55.609Z,25.5
2018-01-22T02:49:55.386Z,25.5
2018-01-22T02:50:55.716Z,25.5
2018-01-22T02:51:53.583Z,25.5
2018-01-22T02:52:53.601Z,25.5
2018-01-22T02:53:53.663Z,25.5
2018-01-22T02:54:55.646Z,25.5
2018-01-22T02:55:53.746Z,25.5
2018-01-22T02:56:54.040Z,25.5
2018-01-22T02:57:53.942Z,25.5
2018-01-22T02:58:55.883Z,25.5
2018-01-22T02:59:55.893Z,25.5
2018-01-22T03:00:56.157Z,25.5
2018-01-22T03:01:54.041Z,25.5
2018-01-22T03:02:54.209Z,25.5
2018-01-22T03:03:54.169Z,25.5
2018-01-22T03:04:54.239Z,25.5
2018-01-22T03:05:54.294Z,25.5
2018-01-22T03:06:56.446Z,25.5
2018-01-22T03:07:54.453Z,25.5
2018-01-22T03:08:54.475Z,25.5
2018-01-22T03:09:56.385Z,25.5
2018-01-22T03:10:54.731Z,25.5
2018-01-22T03:11:56.579Z,25.5
2018-01-22T03:12:56.625Z,25.4
2018-01-22T03:13:56.922Z,25.5
2018-01-22T03:14:54.893Z,25.4
2018-01-22T03:15:55.007Z,25.4
2018-01-22T03:16:55.259Z,25.4
2018-01-22T03:17:57.225Z,25.5
2018-01-22T03:18:57.088Z,25.5
2018-01-22T03:19:57.391Z,25.5
2018-01-22T03:20:55.504Z,25.5
2018-01-22T03:21:55.587Z,25.5
2018-01-22T03:22:55.486Z,25.5
2018-01-22T03:23:55.689Z,25.5
2018-01-22T03:24:55.750Z,25.4
2018-01-22T03:25:57.754Z,25.4
2018-01-22T03:26:57.789Z,25.4
2018-01-22T03:27:55.754Z,25.4
2018-01-22T03:28:55.790Z,25.4
2018-01-22T03:29:57.966Z,25.5
2018-01-22T03:30:56.086Z,25.4
2018-01-22T03:31:55.928Z,25.4
2018-01-22T03:32:58.208Z,25.4
2018-01-22T03:33:56.136Z,25.4
2018-01-22T03:34:56.150Z,25.5
2018-01-22T03:35:56.422Z,25.5
2018-01-22T03:36:56.479Z,25.4
2018-01-22T03:37:56.289Z,25.5
2018-01-22T03:38:56.583Z,25.5
2018-01-22T03:39:58.597Z,25.5
2018-01-22T03:40:58.627Z,25.5
2018-01-22T03:41:56.533Z,25.5
2018-01-22T03:42:56.825Z,25.5
2018-01-22T03:43:56.589Z,25.5
2018-01-22T03:44:58.739Z,25.5
2018-01-22T03:45:58.811Z,25.5
2018-01-22T03:46:58.696Z,25.5
2018-01-22T03:47:57.016Z,25.5
2018-01-22T03:48:58.950Z,25.5
2018-01-22T03:49:56.860Z,25.5
2018-01-22T03:50:57.124Z,25.5
2018-01-22T03:51:58.858Z,25.5
2018-01-22T03:52:59.092Z,25.5
2018-01-22T03:53:57.014Z,25.5
2018-01-22T03:54:57.080Z,25.5
2018-01-22T03:55:57.247Z,25.5
2018-01-22T03:56:57.117Z,25.4
2018-01-22T03:57:57.189Z,25.5
2018-01-22T03:58:57.402Z,25.4
2018-01-22T03:59:59.369Z,25.4
2018-01-22T04:00:57.478Z,25.4
2018-01-22T04:01:59.517Z,25.5
2018-01-22T04:02:59.549Z,25.5
2018-01-22T04:03:57.487Z,25.5
2018-01-22T04:04:57.537Z,25.5
2018-01-22T04:05:59.517Z,25.4
2018-01-22T04:06:57.835Z,25.4
2018-01-22T04:07:57.688Z,25.4
2018-01-22T04:08:57.811Z,25.4
2018-01-22T04:09:59.991Z,25.4
2018-01-22T04:10:57.863Z,25.4
2018-01-22T04:12:00.029Z,25.4
2018-01-22T04:12:58.122Z,25.4
2018-01-22T04:13:58.148Z,25.4
2018-01-22T04:14:58.265Z,25.4
2018-01-22T04:15:58.349Z,25.4
2018-01-22T04:17:00.253Z,25.4
2018-01-22T04:17:58.163Z,25.5
2018-01-22T04:18:58.256Z,25.5
2018-01-22T04:19:58.297Z,25.5
2018-01-22T04:20:58.329Z,25.5
2018-01-22T04:22:00.539Z,25.5
2018-01-22T04:23:00.601Z,25.5
2018-01-22T04:24:00.615Z,25.5
2018-01-22T04:25:00.604Z,25.5
2018-01-22T04:25:58.562Z,25.5
2018-01-22T04:27:00.817Z,25.4
2018-01-22T04:27:58.860Z,25.5
2018-01-22T04:28:58.781Z,25.4
2018-01-22T04:29:58.816Z,25.5
2018-01-22T04:31:00.730Z,25.5
2018-01-22T04:32:01.691Z,25.4
2018-01-22T04:33:01.083Z,25.4
2018-01-22T04:34:01.113Z,25.4
2018-01-22T04:34:59.028Z,25.4
2018-01-22T04:36:01.146Z,25.4
2018-01-22T04:36:59.227Z,25.4
2018-01-22T04:37:59.100Z,25.4
2018-01-22T04:39:01.335Z,25.5
2018-01-22T04:40:01.205Z,25.5
2018-01-22T04:40:59.346Z,25.5
2018-01-22T04:41:59.652Z,25.5
2018-01-22T04:42:59.737Z,25.5
2018-01-22T04:43:59.855Z,25.5
2018-01-22T04:45:01.529Z,25.5
2018-01-22T04:46:01.828Z,25.5
2018-01-22T04:46:59.916Z,25.5
2018-01-22T04:48:00.680Z,25.6
2018-01-22T04:48:59.880Z,25.5
2018-01-22T04:50:00.582Z,25.6
2018-01-22T04:50:59.898Z,25.5
2018-01-22T04:52:01.824Z,25.5
2018-01-22T04:53:02.088Z,25.5
2018-01-22T04:53:59.909Z,25.5
2018-01-22T04:55:00.199Z,25.5
2018-01-22T04:56:01.974Z,25.5
2018-01-22T04:57:02.809Z,25.5
2018-01-22T04:58:00.365Z,25.5
2018-01-22T04:59:00.207Z,25.6
2018-01-22T05:00:02.412Z,25.6
2018-01-22T05:01:02.439Z,25.6
2018-01-22T05:02:02.267Z,25.6
2018-01-22T05:03:01.032Z,25.5
2018-01-22T05:04:00.536Z,25.5
2018-01-22T05:05:00.615Z,25.6
2018-01-22T05:06:02.791Z,25.5
2018-01-22T05:07:02.578Z,25.5
2018-01-22T05:08:00.902Z,25.5
2018-01-22T05:09:00.691Z,25.5
2018-01-22T05:10:01.317Z,25.5
2018-01-22T05:11:02.713Z,25.5
2018-01-22T05:12:02.954Z,25.5
2018-01-22T05:13:00.837Z,25.5
2018-01-22T05:14:03.044Z,25.5
2018-01-22T05:15:03.170Z,25.5
2018-01-22T05:16:02.985Z,25.5
2018-01-22T05:17:01.130Z,25.5
2018-01-22T05:18:01.422Z,25.5
2018-01-22T05:19:02.374Z,25.5
2018-01-22T05:20:01.321Z,25.5
2018-01-22T05:21:03.472Z,25.5
2018-01-22T05:22:01.400Z,25.5
2018-01-22T05:23:01.681Z,25.5
2018-01-22T05:24:01.435Z,25.5
2018-01-22T05:25:02.228Z,25.5
2018-01-22T05:26:01.582Z,25.6
2018-01-22T05:27:01.821Z,25.6
2018-01-22T05:28:01.915Z,25.8
2018-01-22T05:29:03.647Z,26.1
2018-01-22T05:30:02.244Z,26.2
2018-01-22T05:31:02.055Z,26.4
2018-01-22T05:32:01.796Z,26.5
2018-01-22T05:33:02.038Z,26.7
2018-01-22T05:34:03.830Z,26.9
2018-01-22T05:35:04.042Z,27.1
2018-01-22T05:36:02.132Z,27.2
2018-01-22T05:37:04.164Z,27.4
2018-01-22T05:38:04.335Z,27.5
2018-01-22T05:39:04.042Z,27.6
2018-01-22T05:40:04.271Z,27.7
2018-01-22T05:41:04.366Z,27.8
2018-01-22T05:42:02.261Z,27.9
2018-01-22T05:43:04.458Z,27.9
2018-01-22T05:44:05.137Z,27.9
2018-01-22T05:45:03.240Z,28
2018-01-22T05:46:03.460Z,28.1
2018-01-22T05:47:02.572Z,28.1
2018-01-22T05:48:04.781Z,28.2
2018-01-22T05:49:04.861Z,28.2
2018-01-22T05:50:05.476Z,28.3
2018-01-22T05:51:03.490Z,28.3
2018-01-22T05:52:05.037Z,28.3
2018-01-22T05:53:02.932Z,28.3
2018-01-22T05:54:03.014Z,28.4
2018-01-22T05:55:03.334Z,28.4
2018-01-22T06:02:50.068Z,28.7
2018-01-22T06:03:50.248Z,28.7
2018-01-22T06:04:50.082Z,28.7
2018-01-22T06:05:50.324Z,28.8
2018-01-22T06:06:52.292Z,28.8
2018-01-22T06:07:50.146Z,28.8
2018-01-22T06:08:53.647Z,28.7
2018-01-22T06:09:58.142Z,28.7
2018-01-22T06:11:02.320Z,28.7
2018-01-22T06:11:59.089Z,28.6
2018-01-22T06:13:02.391Z,28.6
2018-01-22T06:13:52.740Z,28.6
2018-01-22T06:14:50.647Z,28.5
2018-01-22T06:16:03.910Z,28.5
2018-01-22T06:17:06.904Z,28.4
2018-01-22T06:18:01.474Z,28.1
2018-01-22T06:18:50.706Z,28
2018-01-22T06:19:50.773Z,28
2018-01-22T06:20:52.679Z,28.1
2018-01-22T06:21:52.992Z,28.2
2018-01-22T06:22:51.145Z,28.3
2018-01-22T06:23:51.180Z,28.4
2018-01-22T06:24:53.750Z,28.5
2018-01-22T06:25:51.742Z,28.7
2018-01-22T06:26:51.098Z,28.7
2018-01-22T06:27:51.322Z,28.7
2018-01-22T06:28:51.147Z,28.7
2018-01-22T06:29:51.396Z,28.6
2018-01-22T06:30:53.165Z,28.4
2018-01-22T06:31:51.328Z,28.3
2018-01-22T06:32:51.283Z,28.2
2018-01-22T06:33:51.380Z,28.1
2018-01-22T06:34:53.518Z,28
2018-01-22T06:35:51.563Z,27.9
2018-01-22T06:36:51.449Z,27.9
2018-01-22T06:37:51.725Z,27.8
2018-01-22T06:38:51.788Z,27.8
2018-01-22T06:39:51.620Z,27.7
2018-01-22T06:40:53.780Z,27.6
2018-01-22T06:41:51.745Z,27.6
2018-01-22T06:42:51.822Z,27.5
2018-01-22T06:43:53.959Z,27.5
2018-01-22T06:44:53.986Z,27.5
2018-01-22T06:45:54.048Z,27.5
2018-01-22T06:46:51.945Z,27.5
2018-01-22T06:47:52.112Z,27.5
2018-01-22T06:48:54.284Z,27.5
2018-01-22T06:49:52.157Z,27.6
2018-01-22T06:50:54.374Z,27.6
2018-01-22T06:51:54.448Z,27.6
2018-01-22T06:52:54.215Z,27.6
2018-01-22T06:53:54.230Z,27.7
2018-01-22T06:54:52.410Z,27.8
2018-01-22T06:55:52.617Z,27.8
2018-01-22T06:56:52.636Z,27.9
2018-01-22T06:57:54.588Z,27.9
2018-01-22T06:58:52.429Z,28
2018-01-22T06:59:54.717Z,28.1
2018-01-22T07:00:52.638Z,28.2
2018-01-22T07:01:52.722Z,28.2
2018-01-22T07:02:53.016Z,28.3
2018-01-22T07:03:54.747Z,28.3
2018-01-22T07:04:54.996Z,28.4
2018-01-22T07:05:55.035Z,28.5
2018-01-22T07:06:53.236Z,28.5
2018-01-22T07:07:52.977Z,28.5
2018-01-22T07:08:53.044Z,28.6
2018-01-22T07:09:55.266Z,28.6
2018-01-22T07:10:53.440Z,28.7
2018-01-22T07:11:55.437Z,28.8
2018-01-22T07:12:53.577Z,28.8
2018-01-22T07:13:53.730Z,28.9
2018-01-22T07:14:53.726Z,28.9
2018-01-22T07:15:55.419Z,29
2018-01-22T07:16:53.578Z,29
2018-01-22T07:17:53.885Z,29.1
2018-01-22T07:18:55.590Z,29.1
2018-01-22T07:19:54.000Z,29.1
2018-01-22T07:20:53.823Z,29.2
2018-01-22T07:21:55.841Z,29.2
2018-01-22T07:22:54.282Z,29.2
2018-01-22T07:23:54.060Z,29.3
2018-01-22T07:24:54.111Z,29.3
2018-01-22T07:25:56.313Z,29.3
2018-01-22T07:26:54.673Z,29.4
2018-01-22T07:27:54.305Z,29.4
2018-01-22T07:28:54.250Z,29.4
2018-01-22T07:29:56.277Z,29.4
2018-01-22T07:30:54.597Z,29.5
2018-01-22T07:31:54.478Z,29.5
2018-01-22T07:32:54.503Z,29.5
2018-01-22T07:33:54.537Z,29.5
2018-01-22T07:34:56.500Z,29.5
2018-01-22T07:35:54.801Z,29.5
2018-01-22T07:36:56.774Z,29.6
2018-01-22T07:37:56.644Z,29.6
2018-01-22T07:38:54.784Z,29.6
2018-01-22T07:39:56.776Z,29.6
2018-01-22T07:40:54.955Z,29.6
2018-01-22T07:41:55.002Z,29.6
2018-01-22T07:42:57.184Z,29.6
2018-01-22T07:43:55.357Z,29.7
2018-01-22T07:44:57.324Z,29.7
2018-01-22T07:45:55.147Z,29.7
2018-01-22T07:46:57.419Z,29.7
2018-01-22T07:47:57.418Z,29.7
2018-01-22T07:48:55.389Z,29.7
2018-01-22T07:49:55.700Z,29.7
2018-01-22T07:50:57.795Z,29.7
2018-01-22T07:51:56.082Z,29.7
2018-01-22T07:52:55.842Z,29.7
2018-01-22T07:53:57.852Z,29.7
2018-01-22T07:54:55.735Z,29.7
2018-01-22T07:55:57.877Z,29.7
2018-01-22T07:56:55.762Z,29.7
2018-01-22T07:57:55.851Z,29.8
2018-01-22T07:58:55.932Z,29.8
2018-01-22T07:59:56.165Z,29.8
2018-01-22T08:00:55.962Z,29.8
2018-01-22T08:01:56.036Z,29.8
2018-01-22T08:02:56.109Z,29.8
2018-01-22T08:03:58.998Z,29.8
2018-01-22T08:04:58.981Z,29.9
2018-01-22T08:05:56.833Z,29.9
2018-01-22T08:06:58.412Z,29.9
2018-01-22T08:07:56.280Z,29.9
2018-01-22T08:08:56.250Z,29.9
2018-01-22T08:09:56.533Z,29.9
2018-01-22T08:10:56.767Z,29.9
2018-01-22T08:11:56.709Z,29.9
2018-01-22T08:12:56.435Z,29.9
2018-01-22T08:13:58.608Z,29.9
2018-01-22T08:14:58.706Z,29.9
2018-01-22T08:15:56.626Z,30
2018-01-22T08:16:58.791Z,30
2018-01-22T08:17:58.757Z,29.9
2018-01-22T08:18:58.660Z,30
2018-01-22T08:19:57.096Z,30
2018-01-22T08:20:57.181Z,30
2018-01-22T08:21:56.912Z,30
2018-01-22T08:22:58.867Z,30
2018-01-22T08:23:59.083Z,30
2018-01-22T08:24:56.989Z,30
2018-01-22T08:25:59.237Z,30
2018-01-22T08:26:57.438Z,30
2018-01-22T08:27:58.141Z,30
2018-01-22T08:28:57.565Z,30
2018-01-22T08:29:58.021Z,30
2018-01-22T08:30:57.515Z,30
2018-01-22T08:31:58.137Z,30
2018-01-22T08:32:59.375Z,30
2018-01-22T08:33:57.483Z,30
2018-01-22T08:34:59.689Z,30
2018-01-22T08:35:57.630Z,30
2018-01-22T08:36:57.652Z,30
2018-01-22T08:37:59.634Z,30
2018-01-22T08:39:00.676Z,30
2018-01-22T08:40:00.700Z,30.1
2018-01-22T08:40:57.925Z,30.1
2018-01-22T08:41:59.006Z,30.1
2018-01-22T08:43:00.705Z,30.1
2018-01-22T08:43:58.241Z,30.1
2018-01-22T08:44:58.295Z,30
2018-01-22T08:46:01.657Z,30
2018-01-22T08:47:00.103Z,30
2018-01-22T08:48:00.237Z,30
2018-01-22T08:49:01.140Z,30
2018-01-22T08:50:01.053Z,30
2018-01-22T08:51:00.413Z,30
2018-01-22T08:51:59.050Z,30
2018-01-22T08:53:00.456Z,30
2018-01-22T08:53:58.578Z,30
2018-01-22T08:55:00.791Z,30
2018-01-22T08:56:00.620Z,30
2018-01-22T08:57:01.317Z,30
2018-01-22T08:57:58.917Z,30
2018-01-22T08:58:58.779Z,30
2018-01-22T08:59:58.828Z,30
2018-01-22T09:01:01.972Z,30
2018-01-22T09:01:59.096Z,30
2018-01-22T09:02:58.964Z,30
2018-01-22T09:04:01.898Z,30
2018-01-22T09:04:59.351Z,30
2018-01-22T09:05:59.401Z,30
2018-01-22T09:06:59.473Z,30
2018-01-22T09:08:00.010Z,30
2018-01-22T09:09:01.542Z,30
2018-01-22T09:10:02.313Z,30
2018-01-22T09:11:01.793Z,30
2018-01-22T09:11:59.689Z,30
2018-01-22T09:13:02.832Z,30
2018-01-22T09:14:01.977Z,30
2018-01-22T09:15:01.536Z,30
2018-01-22T09:16:00.246Z,30
2018-01-22T09:16:59.709Z,30
2018-01-22T09:18:00.876Z,30
2018-01-22T09:19:00.123Z,30
2018-01-22T09:20:01.174Z,30
2018-01-22T09:21:00.858Z,30
2018-01-22T09:22:00.302Z,30
2018-01-22T09:23:00.962Z,30
2018-01-22T09:24:01.204Z,30
2018-01-22T09:25:01.499Z,30
2018-01-22T09:26:00.350Z,30
2018-01-22T09:27:00.333Z,30
2018-01-22T09:28:02.415Z,30
2018-01-22T09:29:02.921Z,30
2018-01-22T09:30:00.834Z,30
2018-01-22T09:31:00.830Z,30
2018-01-22T09:32:00.915Z,30
2018-01-22T09:33:01.163Z,30
2018-01-22T09:34:01.010Z,30
2018-01-22T09:35:01.105Z,30
2018-01-22T09:36:02.821Z,29.9
2018-01-22T09:37:04.298Z,29.9
2018-01-22T09:38:01.175Z,29.9
2018-01-22T09:39:02.184Z,29.9
2018-01-22T09:40:03.095Z,29.9
2018-01-22T09:41:02.941Z,29.9
2018-01-22T09:42:01.803Z,30
2018-01-22T09:43:01.731Z,29.9
2018-01-22T09:44:03.419Z,30
2018-01-22T09:45:01.417Z,30
2018-01-22T09:46:01.382Z,30
2018-01-22T09:47:01.636Z,30
2018-01-22T09:48:03.655Z,30
2018-01-22T09:49:03.678Z,30
2018-01-22T09:50:04.619Z,30
2018-01-22T09:51:03.865Z,30
2018-01-22T09:52:01.844Z,30
2018-01-22T09:53:08.972Z,30
2018-01-22T09:54:04.518Z,30
2018-01-22T09:55:01.876Z,30
2018-01-22T09:56:04.658Z,30
2018-01-22T09:57:01.995Z,29.9
2018-01-22T09:58:03.010Z,29.9
2018-01-22T09:59:02.349Z,29.9
2018-01-22T10:00:04.401Z,29.9
2018-01-22T10:01:05.786Z,29.9
2018-01-22T10:02:02.456Z,29.9
2018-01-22T10:03:03.190Z,29.9
2018-01-22T10:04:03.089Z,29.9
2018-01-22T10:05:04.365Z,29.8
2018-01-22T10:06:05.267Z,29.9
2018-01-22T10:07:03.155Z,29.8
2018-01-22T10:08:03.101Z,29.9
2018-01-22T10:09:04.764Z,29.8
2018-01-22T10:10:03.254Z,29.8
2018-01-22T10:11:02.933Z,29.8
2018-01-22T10:12:02.784Z,29.7
2018-01-22T10:13:05.158Z,29.7
2018-01-22T10:14:02.816Z,29.7
2018-01-22T10:15:05.663Z,29.7
2018-01-22T10:16:04.880Z,29.7
2018-01-22T10:17:03.916Z,29.7
2018-01-22T10:18:03.001Z,29.7
2018-01-22T10:19:02.960Z,29.7
2018-01-22T10:20:03.227Z,29.7
2018-01-22T10:21:03.304Z,29.7
2018-01-22T10:22:05.671Z,29.7
2018-01-22T10:23:03.825Z,29.7
2018-01-22T10:24:03.610Z,29.6
2018-01-22T10:25:03.841Z,29.7
2018-01-22T10:26:06.034Z,29.6
2018-01-22T10:27:03.650Z,29.7
2018-01-22T10:28:03.705Z,29.7
2018-01-22T10:29:05.378Z,29.7
2018-01-22T10:30:03.493Z,29.7
2018-01-22T10:31:04.033Z,29.7
2018-01-22T10:32:05.790Z,29.7
2018-01-22T10:33:03.845Z,29.7
2018-01-22T10:34:05.494Z,29.7
2018-01-22T10:35:04.789Z,29.7
2018-01-22T10:36:06.955Z,29.7
2018-01-22T10:37:06.308Z,29.8
2018-01-22T10:38:04.235Z,29.8
2018-01-22T10:39:06.066Z,29.8
2018-01-22T10:40:04.255Z,29.8
2018-01-22T10:41:06.537Z,29.8
2018-01-22T10:42:04.328Z,29.8
2018-01-22T10:43:06.307Z,29.8
2018-01-22T10:44:06.156Z,29.8
2018-01-22T10:45:04.326Z,29.8
2018-01-22T10:46:05.168Z,29.8
2018-01-22T10:47:05.016Z,29.8
2018-01-22T10:48:04.937Z,29.8
2018-01-22T10:49:04.408Z,29.8
2018-01-22T10:50:06.638Z,29.8
2018-01-22T10:51:04.748Z,29.8
2018-01-22T10:52:06.421Z,29.8
2018-01-22T10:53:06.246Z,29.8
2018-01-22T10:54:04.661Z,29.7
2018-01-22T10:55:06.509Z,29.7
2018-01-22T10:56:04.829Z,29.7
2018-01-22T10:57:04.794Z,29.8
2018-01-22T10:58:04.806Z,29.8
2018-01-22T10:59:04.780Z,29.8
2018-01-22T11:00:05.049Z,29.8
2018-01-22T11:01:05.211Z,29.8
2018-01-22T11:02:05.161Z,29.8
2018-01-22T11:03:05.187Z,29.8
2018-01-22T11:04:04.966Z,29.8
2018-01-22T11:05:06.960Z,29.7
2018-01-22T11:06:05.701Z,29.7
2018-01-22T11:07:05.316Z,29.7
2018-01-22T11:08:07.077Z,29.7
2018-01-22T11:09:05.744Z,29.8
2018-01-22T11:10:05.498Z,29.7
2018-01-22T11:11:07.646Z,29.8
2018-01-22T11:12:07.554Z,29.8
2018-01-22T11:13:07.498Z,29.7
2018-01-22T11:14:05.553Z,29.7
2018-01-22T11:15:07.882Z,29.6
2018-01-22T11:16:09.502Z,29.5
2018-01-22T11:17:10.909Z,29.3
2018-01-22T11:18:07.820Z,28.8
2018-01-22T11:19:07.855Z,28.6
2018-01-22T11:20:07.688Z,28.4
2018-01-22T11:21:06.138Z,28.2
2018-01-22T11:22:08.084Z,28.2
2018-01-22T11:23:08.074Z,28.1
2018-01-22T11:24:08.157Z,28.1
2018-01-22T11:25:06.078Z,28.1
2018-01-22T11:26:06.205Z,28.1
2018-01-22T11:27:06.426Z,28.1
2018-01-22T11:28:08.791Z,28.2
2018-01-22T11:29:06.204Z,28.3
2018-01-22T11:30:06.610Z,28.4
2018-01-22T11:31:08.896Z,28.4
2018-01-22T11:32:06.326Z,28.5
2018-01-22T11:33:08.666Z,28.5
2018-01-22T11:34:06.455Z,28.5
2018-01-22T11:35:08.778Z,28.5
2018-01-22T11:36:06.588Z,28.5
2018-01-22T11:37:06.601Z,28.6
2018-01-22T11:38:09.204Z,28.6
2018-01-22T11:39:08.840Z,28.6
2018-01-22T11:40:08.719Z,28.6
2018-01-22T11:41:09.106Z,28.6
2018-01-22T11:42:09.054Z,28.6
2018-01-22T11:43:07.113Z,28.5
2018-01-22T11:44:08.512Z,28.5
2018-01-22T11:45:09.417Z,28.5
2018-01-22T11:46:07.679Z,28.5
2018-01-22T11:47:07.993Z,28.5
2018-01-22T11:48:07.756Z,28.5
2018-01-22T11:49:09.866Z,28.5
2018-01-22T11:50:07.788Z,28.5
2018-01-22T11:51:10.015Z,28.4
2018-01-22T11:52:07.369Z,28.4
2018-01-22T11:53:07.588Z,28.4
2018-01-22T11:54:07.434Z,28.4
2018-01-22T11:55:07.561Z,28.4
2018-01-22T11:56:07.503Z,28.4
2018-01-22T11:57:09.726Z,28.4
2018-01-22T11:58:07.745Z,28.4
2018-01-22T11:59:08.383Z,28.4
2018-01-22T12:00:10.458Z,28.4
2018-01-22T12:01:09.722Z,28.4
2018-01-22T12:02:08.098Z,28.4
2018-01-22T12:03:08.324Z,28.4
2018-01-22T12:04:08.016Z,28.4
2018-01-22T12:05:08.228Z,28.5
2018-01-22T12:06:10.202Z,28.5
2018-01-22T12:07:08.543Z,28.5
2018-01-22T12:08:08.551Z,28.6
2018-01-22T12:09:10.398Z,28.6
2018-01-22T12:10:10.398Z,28.6
2018-01-22T12:11:08.636Z,28.7
2018-01-22T12:12:08.487Z,28.7
2018-01-22T12:13:08.598Z,28.8
2018-01-22T12:14:08.686Z,28.8
2018-01-22T12:15:08.543Z,28.8
2018-01-22T12:16:08.698Z,28.9
2018-01-22T12:17:10.837Z,28.9
2018-01-22T12:18:08.877Z,28.9
2018-01-22T12:19:08.766Z,28.9
2018-01-22T12:20:09.047Z,28.9
2018-01-22T12:21:08.918Z,28.9
2018-01-22T12:22:09.128Z,28.9
2018-01-22T12:23:09.117Z,28.9
2018-01-22T12:24:09.090Z,28.9
2018-01-22T12:25:09.607Z,28.9
2018-01-22T12:26:09.416Z,28.9
2018-01-22T12:27:09.273Z,28.9
2018-01-22T12:28:09.507Z,28.8
2018-01-22T12:29:09.489Z,28.7
2018-01-22T12:30:10.315Z,28.6
2018-01-22T12:31:11.432Z,28.6
2018-01-22T12:32:09.507Z,28.6
2018-01-22T12:33:09.664Z,28.6
2018-01-22T12:34:09.528Z,28.6
2018-01-22T12:35:09.549Z,28.6
2018-01-22T12:36:12.905Z,28.5
2018-01-22T12:37:09.762Z,28.5
2018-01-22T12:38:12.142Z,28.5
2018-01-22T12:39:12.012Z,28.5
2018-01-22T12:40:09.976Z,28.5
2018-01-22T12:41:12.144Z,28.5
2018-01-22T12:42:11.987Z,28.5
2018-01-22T12:43:10.149Z,28.5
2018-01-22T12:44:10.098Z,28.5
2018-01-22T12:45:10.345Z,28.5
2018-01-22T12:46:10.332Z,28.5
2018-01-22T12:47:10.428Z,28.5
2018-01-22T12:48:10.243Z,28.5
2018-01-22T12:49:11.087Z,28.5
2018-01-22T12:50:13.086Z,28.5
2018-01-22T12:51:10.669Z,28.5
2018-01-22T12:52:11.214Z,28.5
2018-01-22T12:53:12.407Z,28.5
2018-01-22T12:54:10.740Z,28.4
2018-01-22T12:55:10.695Z,28.4
2018-01-22T12:56:10.648Z,28.4
2018-01-22T12:57:12.589Z,28.3
2018-01-22T12:58:13.101Z,28.3
2018-01-22T12:59:13.160Z,28.3
2018-01-22T13:00:13.317Z,28.2
2018-01-22T13:01:10.792Z,28.2
2018-01-22T13:02:14.366Z,28.1
2018-01-22T13:03:11.126Z,28
2018-01-22T13:04:11.091Z,27.9
2018-01-22T13:05:11.023Z,27.9
2018-01-22T13:06:11.434Z,27.8
2018-01-22T13:07:11.370Z,27.7
2018-01-22T13:08:11.095Z,27.6
2018-01-22T13:09:11.211Z,27.4
2018-01-22T13:10:11.435Z,27.3
2018-01-22T13:11:11.934Z,27.2
2018-01-22T13:12:13.412Z,27.1
2018-01-22T13:13:14.003Z,27
2018-01-22T13:14:15.468Z,27
2018-01-22T13:15:11.574Z,26.9
2018-01-22T13:16:11.417Z,26.8
2018-01-22T13:17:14.298Z,26.7
2018-01-22T13:18:11.454Z,26.7
2018-01-22T13:19:13.783Z,26.6
2018-01-22T13:20:13.593Z,26.3
2018-01-22T13:21:13.872Z,26.1
2018-01-22T13:22:13.621Z,26
2018-01-22T13:23:11.807Z,26
2018-01-22T13:24:12.012Z,26
2018-01-22T13:25:12.083Z,26
2018-01-22T13:26:12.298Z,26
2018-01-22T13:27:12.236Z,26.1
2018-01-22T13:28:14.271Z,26.3
2018-01-22T13:29:12.252Z,26.5
2018-01-22T13:30:14.176Z,26.7
2018-01-22T13:31:12.481Z,27
2018-01-22T13:32:12.605Z,27.2
2018-01-22T13:33:12.471Z,27.3